map of KCPT home
KCPT - Airport
Location
City:  Cleburne, Texas, United States
Name:Cleburne Regional
ICAO:KCPT
FAA LID:CPT

Details
Type:Airport (Airfield)
Use:Public/Civil
Latitude:3221'13"N (32.353750)
Longitude:9726'01"W (-97.433749)
Datum:WGS 1984
Elevation:854 ft (260 m)
Variation:3.56E (WMM2015v2 magnetic declination)
-0.10 annual change
Runways:1
Longest:5697 × 100 ft (1736 × 30.5 m), paved

Time
Time Zone:UTC-6 (DST-5)
Local Time:

Weather
METAR:KCPT 041415Z AUTO 21005KT M1/4SM FG OVC002 15/15 A2990 RMK AO2

Related Locations
Nearby:
Farthest:RRG: 10969 mi / 17653 km
Plaine Corail [Sir Gatan Duval Airport (Plaine Corail Airport)], Rodrigues Island, MU

Find:

   beyond  
but within

Other Information
Maps:
NOTAMs:
Links:
Sources:

  
  • flag of United States
  • flag of Texas
  

Sectional Chart

Flight Planning
at skyvector.com

Satellite Image

Google Maps Satellite view

 

Copyright © 2004-2019 Karl L. Swartz. All rights reserved.
The Great Circle Mapper name and logo are trademarks of the Great Circle Mapper.
All other trademarks mentioned herein belong to their respective owners.
Please see credits for attibutions and further copyright information.

  Follow gcmap on Facebook Follow gcmap on Twitter GCmap on LinkedIn

hCard Microformat

Geo Microformat